Adana/Incirlik, Turkey

Saat: 05:17 AM +03 Tarih: 27 Şubat 2017 (GMT +0300)
Incirlik Air Base | | Change Station

Elev 217 ft 37.00 °N, 35.42 °E | Updated 27 minutes ago

Clear
Açık
45
Feels Like 45
N
2
Rüzgar Değişken Rüzgar from KD

Bugün
High -- | Low -- F°
--% Chance of Precip.
Dün
High -- | Low -- F°
Precip. -- inç
Basınç 30.06 inç
Görüş Uzaklığı -9999.0 mil
Bulutlar
Çiğ noktası 39
Nem oranı 81%
Yağış 0.00 inç
Kar Kalınlığı Not available.
7:12 AM 6:30 PM
Yeni Ay, 0% visible
METAR LTAG 270150Z 04002KT CAVOK 07/04 Q1018 NOSIG
Basınç 30.06 inç
Görüş Uzaklığı -9999.0 mil
Bulutlar
Çiğ noktası 39
Nem oranı 81%
Yağış 0.00 inç
Kar Kalınlığı Not available.
7:12 AM 6:30 PM
Yeni Ay, 0% visible
METAR LTAG 270150Z 04002KT CAVOK 07/04 Q1018 NOSIG

Get Your Daily Forecast Email!

Thanks for signing up!

Be on the lookout for a verification email in your inbox.

You'll start receiving the daily forecast at 8 AM.

×

10-Day Weather Forecast

×

Almanac

Gökbilim

Feb. 27, 2017 Rise Set
Gerçek Zaman
Günlük Tan
Deniz Tanı
Geceyarısı Yıldız Zamanı
Ay
Görünür Işığın Uzunluğu
Günün Uzunluğu
Tomorrow will be .
, % of the Moon is Illuminated

Günün En Yüksekleri

Country Highs Country Lows

Community

WunderPhotos

Upload Photos

1,962,540 photos uploaded!

WunderBlog® & News

Nearby

Hava Kalitesi

  Hava Kalitesi Hava Kalitesi Endeksi Kirletici
Not available.

Kar Kalınlığı

Station Depth Yükseklik

Earthquake Activity

Şehir Distance Mag. Time & Date
Minimum magnitude displayed is 2.5.

Coastal Water Temperatures

Yer Sıcaklık

Stations

Nearby Weather Stations

Station Location Sıcaklık Rüzgar Etkisi Çiğ noktası Nem oranı Rüzgar Precip. Elev Güncellenme Zamanı Biçim